sensor_id;sensor_type;location;lat;lon;timestamp;P1;durP1;ratioP1;P2;durP2;ratioP2
23990;SDS011;12205;50.600;4.608;2023-11-22T00:00:45;31.42;;;10.35;;
23990;SDS011;12205;50.600;4.608;2023-11-22T00:03:12;24.63;;;9.40;;
23990;SDS011;12205;50.600;4.608;2023-11-22T00:05:39;30.60;;;10.55;;
23990;SDS011;12205;50.600;4.608;2023-11-22T00:08:06;22.25;;;9.05;;
23990;SDS011;12205;50.600;4.608;2023-11-22T00:10:34;25.73;;;9.40;;
23990;SDS011;12205;50.600;4.608;2023-11-22T00:13:02;28.63;;;10.68;;
23990;SDS011;12205;50.600;4.608;2023-11-22T00:15:29;27.05;;;10.15;;
23990;SDS011;12205;50.600;4.608;2023-11-22T00:17:56;26.70;;;10.23;;
23990;SDS011;12205;50.600;4.608;2023-11-22T00:20:23;29.05;;;10.07;;
23990;SDS011;12205;50.600;4.608;2023-11-22T00:22:50;32.00;;;10.48;;
23990;SDS011;12205;50.600;4.608;2023-11-22T00:25:17;26.48;;;10.18;;
23990;SDS011;12205;50.600;4.608;2023-11-22T00:27:46;27.15;;;10.15;;
23990;SDS011;12205;50.600;4.608;2023-11-22T00:30:13;29.33;;;9.93;;
23990;SDS011;12205;50.600;4.608;2023-11-22T00:32:40;24.73;;;9.77;;
23990;SDS011;12205;50.600;4.608;2023-11-22T00:35:08;29.08;;;10.85;;
23990;SDS011;12205;50.600;4.608;2023-11-22T00:37:35;27.52;;;10.07;;
23990;SDS011;12205;50.600;4.608;2023-11-22T00:40:03;27.90;;;10.65;;
23990;SDS011;12205;50.600;4.608;2023-11-22T00:42:35;34.85;;;12.00;;
23990;SDS011;12205;50.600;4.608;2023-11-22T00:45:06;27.60;;;10.93;;
23990;SDS011;12205;50.600;4.608;2023-11-22T00:47:35;29.63;;;10.65;;
23990;SDS011;12205;50.600;4.608;2023-11-22T00:50:04;31.50;;;10.65;;
23990;SDS011;12205;50.600;4.608;2023-11-22T00:52:33;32.42;;;10.82;;
23990;SDS011;12205;50.600;4.608;2023-11-22T00:55:00;30.35;;;11.10;;
23990;SDS011;12205;50.600;4.608;2023-11-22T00:57:27;33.80;;;11.73;;
23990;SDS011;12205;50.600;4.608;2023-11-22T00:59:55;28.42;;;10.85;;
23990;SDS011;12205;50.600;4.608;2023-11-22T01:02:24;32.38;;;11.45;;
23990;SDS011;12205;50.600;4.608;2023-11-22T01:04:51;30.40;;;11.35;;
23990;SDS011;12205;50.600;4.608;2023-11-22T01:07:18;31.35;;;11.35;;
23990;SDS011;12205;50.600;4.608;2023-11-22T01:09:46;30.42;;;10.77;;
23990;SDS011;12205;50.600;4.608;2023-11-22T01:12:13;31.48;;;10.88;;
23990;SDS011;12205;50.600;4.608;2023-11-22T01:14:40;28.70;;;10.65;;
23990;SDS011;12205;50.600;4.608;2023-11-22T01:17:08;28.75;;;10.48;;
23990;SDS011;12205;50.600;4.608;2023-11-22T01:19:36;29.00;;;10.75;;
23990;SDS011;12205;50.600;4.608;2023-11-22T01:22:03;30.45;;;11.32;;
23990;SDS011;12205;50.600;4.608;2023-11-22T01:24:31;28.98;;;11.07;;
23990;SDS011;12205;50.600;4.608;2023-11-22T01:26:59;32.28;;;11.07;;
23990;SDS011;12205;50.600;4.608;2023-11-22T01:29:26;29.98;;;10.55;;
23990;SDS011;12205;50.600;4.608;2023-11-22T01:31:54;28.85;;;10.50;;
23990;SDS011;12205;50.600;4.608;2023-11-22T01:34:21;31.88;;;10.48;;
23990;SDS011;12205;50.600;4.608;2023-11-22T01:36:50;24.25;;;9.48;;
23990;SDS011;12205;50.600;4.608;2023-11-22T01:39:17;25.48;;;9.45;;
23990;SDS011;12205;50.600;4.608;2023-11-22T01:41:46;26.55;;;10.32;;
23990;SDS011;12205;50.600;4.608;2023-11-22T01:44:14;31.63;;;11.18;;
23990;SDS011;12205;50.600;4.608;2023-11-22T01:46:43;33.55;;;10.98;;
23990;SDS011;12205;50.600;4.608;2023-11-22T01:49:10;26.85;;;10.50;;
23990;SDS011;12205;50.600;4.608;2023-11-22T01:51:38;26.95;;;10.07;;
23990;SDS011;12205;50.600;4.608;2023-11-22T01:54:08;27.48;;;10.35;;
23990;SDS011;12205;50.600;4.608;2023-11-22T01:56:37;34.40;;;10.73;;
23990;SDS011;12205;50.600;4.608;2023-11-22T01:59:05;28.77;;;10.77;;
23990;SDS011;12205;50.600;4.608;2023-11-22T02:01:34;26.25;;;9.95;;
23990;SDS011;12205;50.600;4.608;2023-11-22T02:04:02;32.17;;;10.38;;
23990;SDS011;12205;50.600;4.608;2023-11-22T02:06:31;24.83;;;9.63;;
23990;SDS011;12205;50.600;4.608;2023-11-22T02:08:58;27.30;;;10.25;;
23990;SDS011;12205;50.600;4.608;2023-11-22T02:11:27;28.70;;;10.45;;
23990;SDS011;12205;50.600;4.608;2023-11-22T02:13:54;29.75;;;10.15;;
23990;SDS011;12205;50.600;4.608;2023-11-22T02:16:21;32.35;;;10.07;;
23990;SDS011;12205;50.600;4.608;2023-11-22T02:18:49;29.45;;;10.48;;
23990;SDS011;12205;50.600;4.608;2023-11-22T02:21:16;25.85;;;9.30;;
23990;SDS011;12205;50.600;4.608;2023-11-22T02:23:45;29.95;;;10.15;;
23990;SDS011;12205;50.600;4.608;2023-11-22T02:26:12;28.20;;;10.32;;
23990;SDS011;12205;50.600;4.608;2023-11-22T02:28:43;25.70;;;9.20;;
23990;SDS011;12205;50.600;4.608;2023-11-22T02:31:10;27.40;;;10.00;;
23990;SDS011;12205;50.600;4.608;2023-11-22T02:33:38;28.95;;;9.93;;
23990;SDS011;12205;50.600;4.608;2023-11-22T02:36:05;24.27;;;9.05;;
23990;SDS011;12205;50.600;4.608;2023-11-22T02:38:33;23.98;;;8.80;;
23990;SDS011;12205;50.600;4.608;2023-11-22T02:41:02;24.40;;;9.02;;
23990;SDS011;12205;50.600;4.608;2023-11-22T02:43:30;26.85;;;9.63;;
23990;SDS011;12205;50.600;4.608;2023-11-22T02:45:57;24.65;;;9.63;;
23990;SDS011;12205;50.600;4.608;2023-11-22T02:48:24;26.48;;;9.40;;
23990;SDS011;12205;50.600;4.608;2023-11-22T02:50:51;29.27;;;9.65;;
23990;SDS011;12205;50.600;4.608;2023-11-22T02:53:19;25.85;;;9.20;;
23990;SDS011;12205;50.600;4.608;2023-11-22T02:55:46;25.33;;;8.90;;
23990;SDS011;12205;50.600;4.608;2023-11-22T02:58:17;24.20;;;9.13;;
23990;SDS011;12205;50.600;4.608;2023-11-22T03:00:45;24.75;;;8.95;;
23990;SDS011;12205;50.600;4.608;2023-11-22T03:03:12;22.70;;;8.85;;
23990;SDS011;12205;50.600;4.608;2023-11-22T03:05:39;27.92;;;9.75;;
23990;SDS011;12205;50.600;4.608;2023-11-22T03:08:06;29.83;;;9.85;;
23990;SDS011;12205;50.600;4.608;2023-11-22T03:10:35;25.75;;;8.82;;
23990;SDS011;12205;50.600;4.608;2023-11-22T03:13:02;27.90;;;9.65;;
23990;SDS011;12205;50.600;4.608;2023-11-22T03:15:31;30.63;;;10.55;;
23990;SDS011;12205;50.600;4.608;2023-11-22T03:17:59;28.98;;;10.10;;
23990;SDS011;12205;50.600;4.608;2023-11-22T03:20:27;28.00;;;9.80;;
23990;SDS011;12205;50.600;4.608;2023-11-22T03:22:59;28.02;;;9.85;;
23990;SDS011;12205;50.600;4.608;2023-11-22T03:25:27;29.58;;;9.38;;
23990;SDS011;12205;50.600;4.608;2023-11-22T03:27:55;28.80;;;10.18;;
23990;SDS011;12205;50.600;4.608;2023-11-22T03:30:22;30.45;;;10.35;;
23990;SDS011;12205;50.600;4.608;2023-11-22T03:32:51;27.00;;;10.27;;
23990;SDS011;12205;50.600;4.608;2023-11-22T03:35:19;31.42;;;10.13;;
23990;SDS011;12205;50.600;4.608;2023-11-22T03:37:46;28.23;;;10.25;;
23990;SDS011;12205;50.600;4.608;2023-11-22T03:40:15;30.60;;;10.57;;
23990;SDS011;12205;50.600;4.608;2023-11-22T03:42:42;27.17;;;9.88;;
23990;SDS011;12205;50.600;4.608;2023-11-22T03:45:11;30.10;;;10.35;;
23990;SDS011;12205;50.600;4.608;2023-11-22T03:47:39;31.42;;;10.75;;
23990;SDS011;12205;50.600;4.608;2023-11-22T03:50:08;29.25;;;10.50;;
23990;SDS011;12205;50.600;4.608;2023-11-22T03:52:35;31.92;;;9.65;;
23990;SDS011;12205;50.600;4.608;2023-11-22T03:55:03;33.25;;;10.18;;
23990;SDS011;12205;50.600;4.608;2023-11-22T03:57:31;30.65;;;10.45;;
23990;SDS011;12205;50.600;4.608;2023-11-22T03:59:58;24.15;;;8.85;;
23990;SDS011;12205;50.600;4.608;2023-11-22T04:02:25;27.15;;;9.75;;
23990;SDS011;12205;50.600;4.608;2023-11-22T04:04:54;26.02;;;9.43;;
23990;SDS011;12205;50.600;4.608;2023-11-22T04:07:23;31.42;;;9.98;;
23990;SDS011;12205;50.600;4.608;2023-11-22T04:09:50;26.77;;;9.77;;
23990;SDS011;12205;50.600;4.608;2023-11-22T04:12:17;26.27;;;10.00;;
23990;SDS011;12205;50.600;4.608;2023-11-22T04:14:45;27.60;;;9.93;;
23990;SDS011;12205;50.600;4.608;2023-11-22T04:17:12;29.95;;;9.93;;
23990;SDS011;12205;50.600;4.608;2023-11-22T04:19:39;32.15;;;10.45;;
23990;SDS011;12205;50.600;4.608;2023-11-22T04:22:06;30.85;;;10.18;;
23990;SDS011;12205;50.600;4.608;2023-11-22T04:24:35;28.20;;;10.23;;
23990;SDS011;12205;50.600;4.608;2023-11-22T04:27:03;30.73;;;10.85;;
23990;SDS011;12205;50.600;4.608;2023-11-22T04:29:30;27.67;;;10.18;;
23990;SDS011;12205;50.600;4.608;2023-11-22T04:31:57;30.27;;;9.90;;
23990;SDS011;12205;50.600;4.608;2023-11-22T04:34:24;26.67;;;9.70;;
23990;SDS011;12205;50.600;4.608;2023-11-22T04:36:52;27.00;;;9.15;;
23990;SDS011;12205;50.600;4.608;2023-11-22T04:39:19;27.17;;;10.27;;
23990;SDS011;12205;50.600;4.608;2023-11-22T04:41:47;29.85;;;10.15;;
23990;SDS011;12205;50.600;4.608;2023-11-22T04:44:15;29.75;;;10.40;;
23990;SDS011;12205;50.600;4.608;2023-11-22T04:46:42;32.25;;;9.20;;
23990;SDS011;12205;50.600;4.608;2023-11-22T04:49:09;25.58;;;9.13;;
23990;SDS011;12205;50.600;4.608;2023-11-22T04:51:36;29.02;;;9.48;;
23990;SDS011;12205;50.600;4.608;2023-11-22T04:54:03;25.55;;;9.15;;
23990;SDS011;12205;50.600;4.608;2023-11-22T04:56:30;37.75;;;10.27;;
23990;SDS011;12205;50.600;4.608;2023-11-22T04:58:59;25.02;;;9.45;;
23990;SDS011;12205;50.600;4.608;2023-11-22T05:01:30;26.10;;;8.80;;
23990;SDS011;12205;50.600;4.608;2023-11-22T05:03:58;35.00;;;10.45;;
23990;SDS011;12205;50.600;4.608;2023-11-22T05:06:25;28.35;;;9.18;;
23990;SDS011;12205;50.600;4.608;2023-11-22T05:08:54;30.83;;;10.02;;
23990;SDS011;12205;50.600;4.608;2023-11-22T05:11:21;28.65;;;9.60;;
23990;SDS011;12205;50.600;4.608;2023-11-22T05:13:48;33.03;;;10.27;;
23990;SDS011;12205;50.600;4.608;2023-11-22T05:16:17;31.02;;;10.20;;
23990;SDS011;12205;50.600;4.608;2023-11-22T05:18:45;29.70;;;10.00;;
23990;SDS011;12205;50.600;4.608;2023-11-22T05:21:12;30.52;;;9.68;;
23990;SDS011;12205;50.600;4.608;2023-11-22T05:23:39;30.38;;;10.25;;
23990;SDS011;12205;50.600;4.608;2023-11-22T05:26:06;31.13;;;10.25;;
23990;SDS011;12205;50.600;4.608;2023-11-22T05:28:33;32.83;;;10.45;;
23990;SDS011;12205;50.600;4.608;2023-11-22T05:31:00;37.20;;;11.45;;
23990;SDS011;12205;50.600;4.608;2023-11-22T05:33:29;28.23;;;9.85;;
23990;SDS011;12205;50.600;4.608;2023-11-22T05:35:57;27.75;;;9.52;;
23990;SDS011;12205;50.600;4.608;2023-11-22T05:38:24;29.30;;;8.93;;
23990;SDS011;12205;50.600;4.608;2023-11-22T05:40:51;27.77;;;9.00;;
23990;SDS011;12205;50.600;4.608;2023-11-22T05:43:19;35.92;;;9.77;;
23990;SDS011;12205;50.600;4.608;2023-11-22T05:48:17;29.88;;;9.23;;
23990;SDS011;12205;50.600;4.608;2023-11-22T05:50:46;32.22;;;10.38;;
23990;SDS011;12205;50.600;4.608;2023-11-22T05:53:14;25.98;;;8.77;;
23990;SDS011;12205;50.600;4.608;2023-11-22T05:55:44;27.02;;;8.85;;
23990;SDS011;12205;50.600;4.608;2023-11-22T05:58:12;27.90;;;8.75;;
23990;SDS011;12205;50.600;4.608;2023-11-22T06:00:41;29.42;;;9.02;;
23990;SDS011;12205;50.600;4.608;2023-11-22T06:03:09;28.20;;;9.48;;
23990;SDS011;12205;50.600;4.608;2023-11-22T06:05:36;29.13;;;9.48;;
23990;SDS011;12205;50.600;4.608;2023-11-22T06:08:05;27.05;;;9.30;;
23990;SDS011;12205;50.600;4.608;2023-11-22T06:10:34;30.30;;;9.35;;
23990;SDS011;12205;50.600;4.608;2023-11-22T06:13:03;28.80;;;9.15;;
23990;SDS011;12205;50.600;4.608;2023-11-22T06:15:30;26.05;;;8.95;;
23990;SDS011;12205;50.600;4.608;2023-11-22T06:17:57;25.90;;;8.88;;
23990;SDS011;12205;50.600;4.608;2023-11-22T06:20:24;29.38;;;10.00;;
23990;SDS011;12205;50.600;4.608;2023-11-22T06:22:52;27.63;;;9.70;;
23990;SDS011;12205;50.600;4.608;2023-11-22T06:25:20;31.38;;;10.20;;
23990;SDS011;12205;50.600;4.608;2023-11-22T06:27:47;29.60;;;9.55;;
23990;SDS011;12205;50.600;4.608;2023-11-22T06:30:15;26.08;;;8.93;;
23990;SDS011;12205;50.600;4.608;2023-11-22T06:32:42;29.67;;;9.55;;
23990;SDS011;12205;50.600;4.608;2023-11-22T06:35:09;28.52;;;9.52;;
23990;SDS011;12205;50.600;4.608;2023-11-22T06:37:39;26.55;;;9.10;;
23990;SDS011;12205;50.600;4.608;2023-11-22T06:40:07;31.38;;;10.02;;
23990;SDS011;12205;50.600;4.608;2023-11-22T06:42:38;30.02;;;9.75;;
23990;SDS011;12205;50.600;4.608;2023-11-22T06:45:07;26.98;;;8.85;;
23990;SDS011;12205;50.600;4.608;2023-11-22T06:47:37;30.75;;;9.90;;
23990;SDS011;12205;50.600;4.608;2023-11-22T06:50:05;34.22;;;9.82;;
23990;SDS011;12205;50.600;4.608;2023-11-22T06:52:35;25.97;;;9.30;;
23990;SDS011;12205;50.600;4.608;2023-11-22T06:55:03;26.88;;;9.48;;
23990;SDS011;12205;50.600;4.608;2023-11-22T06:57:32;27.75;;;9.88;;
23990;SDS011;12205;50.600;4.608;2023-11-22T07:00:02;29.73;;;10.23;;
23990;SDS011;12205;50.600;4.608;2023-11-22T07:02:30;19.50;;;6.33;;
23990;SDS011;12205;50.600;4.608;2023-11-22T07:04:57;28.33;;;9.65;;
23990;SDS011;12205;50.600;4.608;2023-11-22T07:07:25;30.73;;;10.23;;
23990;SDS011;12205;50.600;4.608;2023-11-22T07:09:52;29.25;;;10.30;;
23990;SDS011;12205;50.600;4.608;2023-11-22T07:12:19;26.80;;;9.65;;
23990;SDS011;12205;50.600;4.608;2023-11-22T07:14:47;28.35;;;9.68;;
23990;SDS011;12205;50.600;4.608;2023-11-22T07:17:16;26.67;;;9.13;;
23990;SDS011;12205;50.600;4.608;2023-11-22T07:19:43;26.35;;;9.63;;
23990;SDS011;12205;50.600;4.608;2023-11-22T07:22:12;30.25;;;9.60;;
23990;SDS011;12205;50.600;4.608;2023-11-22T07:24:42;21.55;;;8.13;;
23990;SDS011;12205;50.600;4.608;2023-11-22T07:27:10;20.35;;;7.63;;
23990;SDS011;12205;50.600;4.608;2023-11-22T07:29:39;23.25;;;8.10;;
23990;SDS011;12205;50.600;4.608;2023-11-22T07:32:06;26.65;;;8.70;;
23990;SDS011;12205;50.600;4.608;2023-11-22T07:34:36;24.52;;;8.23;;
23990;SDS011;12205;50.600;4.608;2023-11-22T07:37:05;25.23;;;9.13;;
23990;SDS011;12205;50.600;4.608;2023-11-22T07:39:33;20.73;;;7.40;;
23990;SDS011;12205;50.600;4.608;2023-11-22T07:42:01;22.45;;;7.65;;
23990;SDS011;12205;50.600;4.608;2023-11-22T07:44:29;21.70;;;7.80;;
23990;SDS011;12205;50.600;4.608;2023-11-22T07:46:57;21.00;;;8.00;;
23990;SDS011;12205;50.600;4.608;2023-11-22T07:49:24;23.92;;;8.27;;
23990;SDS011;12205;50.600;4.608;2023-11-22T07:51:53;22.10;;;7.55;;
23990;SDS011;12205;50.600;4.608;2023-11-22T07:54:21;23.88;;;7.55;;
23990;SDS011;12205;50.600;4.608;2023-11-22T07:56:49;21.45;;;7.65;;
23990;SDS011;12205;50.600;4.608;2023-11-22T07:59:18;23.33;;;7.88;;
23990;SDS011;12205;50.600;4.608;2023-11-22T08:01:46;22.10;;;7.93;;
23990;SDS011;12205;50.600;4.608;2023-11-22T08:04:14;20.33;;;6.85;;
23990;SDS011;12205;50.600;4.608;2023-11-22T08:06:42;19.67;;;7.60;;
23990;SDS011;12205;50.600;4.608;2023-11-22T08:09:10;20.55;;;7.78;;
23990;SDS011;12205;50.600;4.608;2023-11-22T08:11:38;24.77;;;8.25;;
23990;SDS011;12205;50.600;4.608;2023-11-22T08:14:06;22.17;;;8.10;;
23990;SDS011;12205;50.600;4.608;2023-11-22T08:16:34;23.88;;;8.15;;
23990;SDS011;12205;50.600;4.608;2023-11-22T08:19:03;22.15;;;8.45;;
23990;SDS011;12205;50.600;4.608;2023-11-22T08:21:32;21.92;;;7.72;;
23990;SDS011;12205;50.600;4.608;2023-11-22T08:23:59;23.42;;;7.93;;
23990;SDS011;12205;50.600;4.608;2023-11-22T08:26:27;20.75;;;7.80;;
23990;SDS011;12205;50.600;4.608;2023-11-22T08:28:55;23.83;;;7.57;;
23990;SDS011;12205;50.600;4.608;2023-11-22T08:31:22;20.80;;;7.50;;
23990;SDS011;12205;50.600;4.608;2023-11-22T08:33:49;22.45;;;7.60;;
23990;SDS011;12205;50.600;4.608;2023-11-22T08:36:17;19.58;;;7.38;;
23990;SDS011;12205;50.600;4.608;2023-11-22T08:38:44;21.50;;;7.57;;
23990;SDS011;12205;50.600;4.608;2023-11-22T08:41:11;21.67;;;8.00;;
23990;SDS011;12205;50.600;4.608;2023-11-22T08:43:40;17.38;;;6.90;;
23990;SDS011;12205;50.600;4.608;2023-11-22T08:46:07;21.67;;;7.90;;
23990;SDS011;12205;50.600;4.608;2023-11-22T08:48:35;21.42;;;7.53;;
23990;SDS011;12205;50.600;4.608;2023-11-22T08:51:03;17.33;;;6.60;;
23990;SDS011;12205;50.600;4.608;2023-11-22T08:53:30;17.70;;;6.60;;
23990;SDS011;12205;50.600;4.608;2023-11-22T08:55:57;18.92;;;6.95;;
23990;SDS011;12205;50.600;4.608;2023-11-22T08:58:24;18.05;;;6.80;;
23990;SDS011;12205;50.600;4.608;2023-11-22T09:00:53;18.60;;;6.85;;
23990;SDS011;12205;50.600;4.608;2023-11-22T09:03:23;15.67;;;6.30;;
23990;SDS011;12205;50.600;4.608;2023-11-22T09:05:50;18.67;;;6.90;;
23990;SDS011;12205;50.600;4.608;2023-11-22T09:08:20;20.20;;;7.40;;
23990;SDS011;12205;50.600;4.608;2023-11-22T09:10:47;16.95;;;6.60;;
23990;SDS011;12205;50.600;4.608;2023-11-22T09:13:15;15.98;;;6.28;;
23990;SDS011;12205;50.600;4.608;2023-11-22T09:15:44;20.65;;;7.03;;
23990;SDS011;12205;50.600;4.608;2023-11-22T09:18:13;21.92;;;7.65;;
23990;SDS011;12205;50.600;4.608;2023-11-22T09:20:41;19.63;;;6.63;;
23990;SDS011;12205;50.600;4.608;2023-11-22T09:23:09;22.60;;;6.97;;
23990;SDS011;12205;50.600;4.608;2023-11-22T09:25:38;17.27;;;6.65;;
23990;SDS011;12205;50.600;4.608;2023-11-22T09:28:05;20.90;;;7.20;;
23990;SDS011;12205;50.600;4.608;2023-11-22T09:30:33;14.40;;;5.82;;
23990;SDS011;12205;50.600;4.608;2023-11-22T09:33:03;15.98;;;6.18;;
23990;SDS011;12205;50.600;4.608;2023-11-22T09:35:34;15.57;;;5.80;;
23990;SDS011;12205;50.600;4.608;2023-11-22T09:38:03;15.98;;;6.05;;
23990;SDS011;12205;50.600;4.608;2023-11-22T09:40:34;14.43;;;6.05;;
23990;SDS011;12205;50.600;4.608;2023-11-22T09:43:02;16.30;;;6.03;;
23990;SDS011;12205;50.600;4.608;2023-11-22T09:45:31;15.68;;;6.40;;
23990;SDS011;12205;50.600;4.608;2023-11-22T09:47:58;16.83;;;6.30;;
23990;SDS011;12205;50.600;4.608;2023-11-22T09:50:27;21.33;;;6.32;;
23990;SDS011;12205;50.600;4.608;2023-11-22T09:53:09;15.13;;;5.75;;
23990;SDS011;12205;50.600;4.608;2023-11-22T09:55:41;16.80;;;5.90;;
23990;SDS011;12205;50.600;4.608;2023-11-22T09:58:11;14.55;;;4.18;;
23990;SDS011;12205;50.600;4.608;2023-11-22T10:00:42;14.18;;;5.53;;
23990;SDS011;12205;50.600;4.608;2023-11-22T10:03:09;16.55;;;5.88;;
23990;SDS011;12205;50.600;4.608;2023-11-22T10:05:40;11.18;;;4.70;;
23990;SDS011;12205;50.600;4.608;2023-11-22T10:08:08;13.77;;;5.47;;
23990;SDS011;12205;50.600;4.608;2023-11-22T10:10:36;14.27;;;5.95;;
23990;SDS011;12205;50.600;4.608;2023-11-22T10:13:05;18.88;;;5.93;;
23990;SDS011;12205;50.600;4.608;2023-11-22T10:15:32;15.68;;;6.22;;
23990;SDS011;12205;50.600;4.608;2023-11-22T10:17:59;18.50;;;6.25;;
23990;SDS011;12205;50.600;4.608;2023-11-22T10:20:36;16.45;;;6.18;;
23990;SDS011;12205;50.600;4.608;2023-11-22T10:23:08;16.97;;;5.90;;
23990;SDS011;12205;50.600;4.608;2023-11-22T10:25:36;14.13;;;5.30;;
23990;SDS011;12205;50.600;4.608;2023-11-22T10:28:08;13.40;;;5.20;;
23990;SDS011;12205;50.600;4.608;2023-11-22T10:30:36;14.07;;;5.15;;
23990;SDS011;12205;50.600;4.608;2023-11-22T10:33:03;14.65;;;5.40;;
23990;SDS011;12205;50.600;4.608;2023-11-22T10:35:30;17.38;;;5.80;;
23990;SDS011;12205;50.600;4.608;2023-11-22T10:38:00;13.57;;;5.30;;
23990;SDS011;12205;50.600;4.608;2023-11-22T10:40:31;13.98;;;5.18;;
23990;SDS011;12205;50.600;4.608;2023-11-22T10:42:58;13.63;;;5.05;;
23990;SDS011;12205;50.600;4.608;2023-11-22T10:45:26;13.52;;;5.40;;
23990;SDS011;12205;50.600;4.608;2023-11-22T10:47:57;14.50;;;5.90;;
23990;SDS011;12205;50.600;4.608;2023-11-22T10:50:27;16.17;;;5.38;;
23990;SDS011;12205;50.600;4.608;2023-11-22T10:52:56;13.23;;;5.00;;
23990;SDS011;12205;50.600;4.608;2023-11-22T10:55:27;24.88;;;5.93;;
23990;SDS011;12205;50.600;4.608;2023-11-22T10:58:01;15.60;;;5.45;;
23990;SDS011;12205;50.600;4.608;2023-11-22T11:00:29;12.40;;;4.60;;
23990;SDS011;12205;50.600;4.608;2023-11-22T11:02:59;13.30;;;5.13;;
23990;SDS011;12205;50.600;4.608;2023-11-22T11:05:34;13.57;;;5.07;;
23990;SDS011;12205;50.600;4.608;2023-11-22T11:08:11;11.93;;;4.53;;
23990;SDS011;12205;50.600;4.608;2023-11-22T11:10:43;13.93;;;5.30;;
23990;SDS011;12205;50.600;4.608;2023-11-22T11:13:11;14.20;;;5.18;;
23990;SDS011;12205;50.600;4.608;2023-11-22T11:15:39;11.63;;;4.60;;
23990;SDS011;12205;50.600;4.608;2023-11-22T11:18:10;15.80;;;5.30;;
23990;SDS011;12205;50.600;4.608;2023-11-22T11:20:44;12.80;;;4.75;;
23990;SDS011;12205;50.600;4.608;2023-11-22T11:23:14;11.32;;;4.38;;
23990;SDS011;12205;50.600;4.608;2023-11-22T11:25:43;14.05;;;4.93;;
23990;SDS011;12205;50.600;4.608;2023-11-22T11:28:10;14.98;;;4.85;;
23990;SDS011;12205;50.600;4.608;2023-11-22T11:30:44;14.20;;;5.50;;
23990;SDS011;12205;50.600;4.608;2023-11-22T11:33:13;10.27;;;4.28;;
23990;SDS011;12205;50.600;4.608;2023-11-22T11:35:43;13.20;;;4.70;;
23990;SDS011;12205;50.600;4.608;2023-11-22T11:38:15;13.88;;;4.78;;
23990;SDS011;12205;50.600;4.608;2023-11-22T11:40:48;14.85;;;5.00;;
23990;SDS011;12205;50.600;4.608;2023-11-22T11:43:20;13.35;;;5.03;;
23990;SDS011;12205;50.600;4.608;2023-11-22T11:46:06;14.48;;;4.72;;
23990;SDS011;12205;50.600;4.608;2023-11-22T11:48:34;12.88;;;4.63;;
23990;SDS011;12205;50.600;4.608;2023-11-22T11:51:01;14.43;;;5.05;;
23990;SDS011;12205;50.600;4.608;2023-11-22T11:53:28;12.00;;;4.95;;
23990;SDS011;12205;50.600;4.608;2023-11-22T11:55:57;12.55;;;5.00;;
23990;SDS011;12205;50.600;4.608;2023-11-22T11:58:25;11.82;;;4.82;;
23990;SDS011;12205;50.600;4.608;2023-11-22T12:00:54;13.25;;;5.00;;
23990;SDS011;12205;50.600;4.608;2023-11-22T12:03:22;13.60;;;5.15;;
23990;SDS011;12205;50.600;4.608;2023-11-22T12:05:49;16.67;;;5.05;;
23990;SDS011;12205;50.600;4.608;2023-11-22T12:08:17;12.27;;;5.20;;
23990;SDS011;12205;50.600;4.608;2023-11-22T12:10:45;13.35;;;5.03;;
23990;SDS011;12205;50.600;4.608;2023-11-22T12:13:17;13.27;;;5.10;;
23990;SDS011;12205;50.600;4.608;2023-11-22T12:15:44;12.23;;;5.00;;
23990;SDS011;12205;50.600;4.608;2023-11-22T12:18:12;11.55;;;4.25;;
23990;SDS011;12205;50.600;4.608;2023-11-22T12:20:39;12.40;;;4.38;;
23990;SDS011;12205;50.600;4.608;2023-11-22T12:23:07;14.52;;;4.65;;
23990;SDS011;12205;50.600;4.608;2023-11-22T12:25:36;10.65;;;4.10;;
23990;SDS011;12205;50.600;4.608;2023-11-22T12:28:04;8.93;;;3.83;;
23990;SDS011;12205;50.600;4.608;2023-11-22T12:30:33;12.57;;;4.72;;
23990;SDS011;12205;50.600;4.608;2023-11-22T12:33:02;14.27;;;5.03;;
23990;SDS011;12205;50.600;4.608;2023-11-22T12:35:31;10.63;;;4.45;;
23990;SDS011;12205;50.600;4.608;2023-11-22T12:37:59;11.73;;;4.70;;
23990;SDS011;12205;50.600;4.608;2023-11-22T12:40:27;12.23;;;4.78;;
23990;SDS011;12205;50.600;4.608;2023-11-22T12:42:57;12.13;;;4.40;;
23990;SDS011;12205;50.600;4.608;2023-11-22T12:45:26;13.75;;;4.75;;
23990;SDS011;12205;50.600;4.608;2023-11-22T12:47:56;8.90;;;3.67;;
23990;SDS011;12205;50.600;4.608;2023-11-22T12:50:34;9.07;;;3.58;;
23990;SDS011;12205;50.600;4.608;2023-11-22T12:53:08;9.25;;;4.05;;
23990;SDS011;12205;50.600;4.608;2023-11-22T12:55:37;9.90;;;3.85;;
23990;SDS011;12205;50.600;4.608;2023-11-22T12:58:09;11.93;;;4.35;;
23990;SDS011;12205;50.600;4.608;2023-11-22T13:00:38;10.10;;;4.28;;
23990;SDS011;12205;50.600;4.608;2023-11-22T13:03:07;10.63;;;4.05;;
23990;SDS011;12205;50.600;4.608;2023-11-22T13:05:36;12.03;;;4.37;;
23990;SDS011;12205;50.600;4.608;2023-11-22T13:08:03;11.98;;;4.70;;
23990;SDS011;12205;50.600;4.608;2023-11-22T13:10:31;10.15;;;4.40;;
23990;SDS011;12205;50.600;4.608;2023-11-22T13:12:58;10.15;;;4.25;;
23990;SDS011;12205;50.600;4.608;2023-11-22T13:15:26;12.85;;;4.30;;
23990;SDS011;12205;50.600;4.608;2023-11-22T13:17:53;10.65;;;4.00;;
23990;SDS011;12205;50.600;4.608;2023-11-22T13:20:25;15.38;;;3.90;;
23990;SDS011;12205;50.600;4.608;2023-11-22T13:22:53;10.30;;;3.80;;
23990;SDS011;12205;50.600;4.608;2023-11-22T13:25:22;9.50;;;3.58;;
23990;SDS011;12205;50.600;4.608;2023-11-22T13:27:50;11.70;;;4.07;;
23990;SDS011;12205;50.600;4.608;2023-11-22T13:30:18;10.50;;;4.00;;
23990;SDS011;12205;50.600;4.608;2023-11-22T13:32:48;10.88;;;4.10;;
23990;SDS011;12205;50.600;4.608;2023-11-22T13:35:15;10.05;;;4.00;;
23990;SDS011;12205;50.600;4.608;2023-11-22T13:37:45;7.90;;;3.60;;
23990;SDS011;12205;50.600;4.608;2023-11-22T13:40:14;8.05;;;3.35;;
23990;SDS011;12205;50.600;4.608;2023-11-22T13:42:47;10.73;;;4.13;;
23990;SDS011;12205;50.600;4.608;2023-11-22T13:45:18;10.10;;;4.25;;
23990;SDS011;12205;50.600;4.608;2023-11-22T13:47:47;13.57;;;5.07;;
23990;SDS011;12205;50.600;4.608;2023-11-22T13:50:16;15.45;;;5.03;;
23990;SDS011;12205;50.600;4.608;2023-11-22T13:52:48;16.48;;;5.40;;
23990;SDS011;12205;50.600;4.608;2023-11-22T13:55:16;12.65;;;4.88;;
23990;SDS011;12205;50.600;4.608;2023-11-22T13:57:48;16.63;;;5.30;;
23990;SDS011;12205;50.600;4.608;2023-11-22T14:00:16;12.32;;;4.90;;
23990;SDS011;12205;50.600;4.608;2023-11-22T14:02:44;12.02;;;4.75;;
23990;SDS011;12205;50.600;4.608;2023-11-22T14:05:12;17.25;;;5.60;;
23990;SDS011;12205;50.600;4.608;2023-11-22T14:07:40;12.73;;;4.43;;
23990;SDS011;12205;50.600;4.608;2023-11-22T14:10:10;10.55;;;4.18;;
23990;SDS011;12205;50.600;4.608;2023-11-22T14:12:41;11.82;;;5.03;;
23990;SDS011;12205;50.600;4.608;2023-11-22T14:15:09;13.65;;;5.35;;
23990;SDS011;12205;50.600;4.608;2023-11-22T14:17:37;12.23;;;4.43;;
23990;SDS011;12205;50.600;4.608;2023-11-22T14:20:07;12.68;;;4.80;;
23990;SDS011;12205;50.600;4.608;2023-11-22T14:22:36;12.60;;;4.53;;
23990;SDS011;12205;50.600;4.608;2023-11-22T14:25:04;15.85;;;5.57;;
23990;SDS011;12205;50.600;4.608;2023-11-22T14:27:35;12.38;;;4.72;;
23990;SDS011;12205;50.600;4.608;2023-11-22T14:30:02;16.27;;;5.57;;
23990;SDS011;12205;50.600;4.608;2023-11-22T14:32:33;13.47;;;5.00;;
23990;SDS011;12205;50.600;4.608;2023-11-22T14:35:01;17.00;;;5.70;;
23990;SDS011;12205;50.600;4.608;2023-11-22T14:37:28;14.27;;;5.72;;
23990;SDS011;12205;50.600;4.608;2023-11-22T14:39:55;16.48;;;5.68;;